Flight Track Log - Related Links

Times and Time Zones

All times are in EDT time to prevent confusion due to time zone crossing. See the GJS3615 flight status page for this flight to view local times or setup timezone preferences in your user account.

Time Position Orientation Groundspeed Altitude Reporting Facility
EDT Latitude Longitude Course Direction KTS MPH feet Rate Location/Type
Sat 09:55:50 AM 44.8667 -93.1667 169° South 174 200 2,700  Level Minneapolis TRACON
Sat 09:56:11 AM 44.8531 -93.1497 139° Southeast 184 212 3,500 2,488 Climbing Minneapolis Center
Sat 09:57:12 AM 44.8036 -93.1317 165° South 216 249 6,100 1,721 Climbing Minneapolis Center
Sat 09:58:00 AM 44.6974 -93.7342 209° Southwest  Level Estimated
Sat 09:58:13 AM 44.7697 -93.1850 228° Southwest 227 261 7,000  Level Minneapolis Center
Sat 09:59:00 AM 44.6005 -93.6898 162° South  Level FlightAware Approximate
Sat 09:59:15 AM 44.7014 -93.2856 226° Southwest 276 318 7,500  Level Minneapolis Center
Sat 10:00:00 AM 44.5550 -93.8179 207° Southwest  Level Estimated
Sat 10:00:16 AM 44.6367 -93.3522 216° Southwest 290 334 10,000  Level Minneapolis Center
Sat 10:01:00 AM 44.4548 -93.7916 169° South  Level FlightAware Approximate
Sat 10:01:18 AM 44.5625 -93.4283 216° Southwest 335 386 11,000  Level Minneapolis Center
Sat 10:02:19 AM 44.4789 -93.5147 216° Southwest 373 429 12,400 1,475 Climbing Minneapolis Center
Sat 10:03:20 AM 44.3903 -93.6056 216° Southwest 394 453 14,000 1,659 Climbing Minneapolis Center
Sat 10:04:22 AM 44.3025 -93.6969 217° Southwest 395 455 15,800 1,756 Climbing Minneapolis Center
Sat 10:05:23 AM 44.2133 -93.7894 217° Southwest 401 461 17,600 1,721 Climbing Minneapolis Center
Sat 10:06:24 AM 44.1206 -93.8683 211° Southwest 395 455 19,300 1,512 Climbing Minneapolis Center
Sat 10:07:26 AM 44.0236 -93.9436 209° Southwest 399 459 20,700 1,610 Climbing Minneapolis Center
Sat 10:08:27 AM 43.9072 -94.0361 210° Southwest 402 463 22,600 1,426 Climbing Minneapolis Center
Sat 10:09:28 AM 43.8100 -94.1131 210° Southwest 403 464 23,600 976 Climbing Minneapolis Center
Sat 10:10:30 AM 43.7097 -94.1925 210° Southwest 412 474 24,600 976 Climbing Minneapolis Center
Sat 10:11:31 AM 43.6156 -94.2656 209° Southwest 420 483 25,600 984 Climbing Minneapolis Center
Sat 10:12:32 AM 43.5133 -94.3450 209° Southwest 421 484 26,600 1,073 Climbing Minneapolis Center
Sat 10:13:34 AM 43.3906 -94.4408 210° Southwest 422 486 27,800 1,073 Climbing Minneapolis Center
Sat 10:14:35 AM 43.2883 -94.5200 209° Southwest 421 484 28,800 984 Climbing Minneapolis Center
Sat 10:15:36 AM 43.1814 -94.5833 203° Southwest 419 482 29,800 1,073 Climbing Minneapolis Center
Sat 10:16:38 AM 43.0867 -94.6661 213° Southwest 414 476 31,000 1,024 Climbing Minneapolis Center
Sat 10:17:39 AM 43.0275 -94.7939 238° Southwest 402 463 31,900 878 Climbing Minneapolis Center
Sat 10:18:41 AM 42.9786 -94.9286 244° Southwest 399 459 32,800 878 Climbing Minneapolis Center
Sat 10:19:42 AM 42.9244 -95.0603 241° Southwest 398 458 33,700 885 Climbing Minneapolis Center
Sat 10:20:43 AM 42.8694 -95.1881 240° Southwest 393 452 34,600 878 Climbing Minneapolis Center
Sat 10:21:45 AM 42.8150 -95.3136 239° Southwest 386 444 35,500 927 Climbing Minneapolis Center
Sat 10:22:46 AM 42.7486 -95.4622 239° Southwest 382 440 36,500 780 Climbing Minneapolis Center
Sat 10:23:48 AM 42.6858 -95.5694 231° Southwest 382 440 37,100 634 Climbing Minneapolis Center
Sat 10:24:49 AM 42.6081 -95.6644 222° Southwest 378 435 37,800 439 Climbing Minneapolis Center
Sat 10:25:51 AM 42.5333 -95.7639 224° Southwest 377 434 38,000 89 Climbing Minneapolis Center
Sat 10:27:04 AM 42.4536 -95.8603 222° Southwest 384 442 38,000 178 Level Minneapolis Center
Sat 10:28:06 AM 42.3564 -95.9772 222° Southwest 388 447 38,400 390 Climbing Minneapolis Center
Sat 10:29:07 AM 42.2814 -96.0797 225° Southwest 384 442 38,800 293 Climbing Minneapolis Center
Sat 10:30:09 AM 42.1931 -96.2053 227° Southwest 384 442 39,000 98 Climbing Minneapolis Center
Sat 10:31:10 AM 42.1544 -96.3083 243° Southwest 385 443 39,000 -341 Level Minneapolis Center
Sat 10:32:12 AM 42.0989 -96.4628 244° Southwest 382 440 38,300 -488 Descending Minneapolis Center
Sat 10:33:13 AM 42.0478 -96.6008 244° Southwest 395 455 38,000 -146 Descending Minneapolis Center
Sat 10:34:15 AM 41.9969 -96.7403 244° Southwest 414 476 38,000  Level Minneapolis Center
Sat 10:35:16 AM 41.9439 -96.8789 243° Southwest 419 482 38,000  Level Minneapolis Center
Sat 10:36:18 AM 41.8911 -97.0181 243° Southwest 421 484 38,000  Level Minneapolis Center
Sat 10:37:20 AM 41.8311 -97.1789 243° Southwest 408 470 38,000  Level Minneapolis Center
Sat 10:38:21 AM 41.7803 -97.3131 243° Southwest 405 466 38,000  Level Minneapolis Center
Sat 10:39:23 AM 41.7289 -97.4472 243° Southwest 406 467 38,000  Level Minneapolis Center
Sat 10:40:24 AM 41.6772 -97.5808 243° Southwest 405 466 38,000  Level Minneapolis Center
Sat 10:41:26 AM 41.6261 -97.7147 243° Southwest 405 466 38,000  Level Minneapolis Center
Sat 10:42:28 AM 41.5739 -97.8481 242° Southwest 405 466 38,000  Level Minneapolis Center
Sat 10:43:29 AM 41.5231 -97.9808 243° Southwest 404 465 38,000  Level Minneapolis Center
Sat 10:44:31 AM 41.4683 -98.1194 242° Southwest 404 465 38,000  Level Minneapolis Center
Sat 10:45:33 AM 41.4167 -98.2508 242° Southwest 402 463 38,000  Level Minneapolis Center
Sat 10:46:35 AM 41.3608 -98.4108 245° Southwest 399 459 38,000  Level Minneapolis Center
Sat 10:47:36 AM 41.3281 -98.5458 252° West 401 461 38,000  Level Minneapolis Center
Sat 10:48:38 AM 41.2944 -98.6864 252° West 401 461 38,000  Level Minneapolis Center
Sat 10:49:40 AM 41.2644 -98.8253 254° West 397 457 38,000  Level Minneapolis Center
Sat 10:50:41 AM 41.2272 -98.9675 251° West 403 464 38,000  Level Minneapolis Center
Sat 10:51:43 AM 41.1903 -99.1072 251° West 402 463 38,000  Level Minneapolis Center
Sat 10:52:59 AM 41.1417 -99.2981 251° West 400 460 38,000  Level Denver Center
Sat 10:54:13 AM 41.1008 -99.4592 251° West 398 458 38,000  Level Denver Center
Sat 10:55:15 AM 41.0753 -99.6086 257° West 399 459 38,000  Level Denver Center
Sat 10:56:17 AM 41.0486 -99.7519 256° West 401 461 38,000  Level Denver Center
Sat 10:57:19 AM 41.0172 -99.9172 256° West 401 461 38,000  Level Denver Center
Sat 10:58:21 AM 40.9914 -100.0553 256° West 403 464 38,000  Level Denver Center
Sat 10:59:23 AM 40.9603 -100.2158 256° West 403 464 38,000  Level Denver Center
Sat 11:00:25 AM 40.9342 -100.3522 256° West 402 463 38,000  Level Denver Center
Sat 11:01:27 AM 40.9044 -100.5111 256° West 400 460 38,000  Level Denver Center
Sat 11:02:29 AM 40.8803 -100.6383 256° West 398 458 38,000  Level Denver Center
Sat 11:03:31 AM 40.8447 -100.8089 255° West 401 461 38,000  Level Denver Center
Sat 11:04:33 AM 40.8161 -100.9536 255° West 398 458 38,000  Level Denver Center
Sat 11:05:48 AM 40.7853 -101.1083 255° West 394 453 38,000  Level Denver Center
Sat 11:06:50 AM 40.7536 -101.2644 255° West 394 453 38,000  Level Denver Center
Sat 11:07:52 AM 40.7269 -101.3972 255° West 393 452 38,000  Level Denver Center
Sat 11:08:54 AM 40.6956 -101.5514 255° West 391 450 38,000  Level Denver Center
Sat 11:09:56 AM 40.6689 -101.6842 255° West 392 451 38,000  Level Denver Center
Sat 11:10:58 AM 40.6369 -101.8381 255° West 391 450 38,000  Level Denver Center
Sat 11:12:00 AM 40.6089 -101.9692 254° West 391 450 38,000 -194 Level Denver Center
Sat 11:13:02 AM 40.5769 -102.1239 255° West 393 452 37,600 -581 Descending Denver Center
Sat 11:14:04 AM 40.5478 -102.2614 254° West 405 466 36,800 -823 Descending Denver Center
Sat 11:15:06 AM 40.5122 -102.4264 254° West 419 482 35,900 -774 Descending Denver Center
Sat 11:16:08 AM 40.4828 -102.5697 255° West 422 486 35,200 -919 Descending Denver Center
Sat 11:17:10 AM 40.4486 -102.7239 254° West 413 475 34,000 -1,645 Descending Denver Center
Sat 11:18:12 AM 40.4197 -102.8639 255° West 401 461 31,800 -2,177 Descending Denver Center
Sat 11:19:14 AM 40.3875 -103.0081 254° West 411 473 29,500 -2,274 Descending Denver Center
Sat 11:20:16 AM 40.3544 -103.1569 254° West 424 488 27,100 -2,323 Descending Denver Center
Sat 11:21:18 AM 40.3217 -103.3025 254° West 420 483 24,700 -2,565 Descending Denver Center
Sat 11:22:20 AM 40.2844 -103.4736 254° West 408 470 21,800 -2,323 Descending Denver Center
Sat 11:23:22 AM 40.2597 -103.5989 256° West 359 413 19,900 -1,984 Descending Denver Center
Sat 11:24:24 AM 40.2597 -103.7200 270° West 319 367 17,700 -1,403 Descending Denver Center
Sat 11:25:26 AM 40.2169 -103.8208 241° Southwest 309 356 17,000 -677 Descending Denver Center
Sat 11:26:28 AM 40.2169 -103.9200 270° West 274 315 16,300 -1,065 Descending Denver Center
Sat 11:27:30 AM 40.2150 -104.0225 269° West 263 303 14,800 -1,401 Descending Denver Center
Sat 11:28:45 AM 40.1425 -104.0867 214° Southwest 264 304 13,100 -964 Descending Denver Center
Sat 11:29:47 AM 40.0789 -104.1294 207° Southwest 261 300 12,600 -677 Descending Denver Center
Sat 11:30:49 AM 40.0208 -104.1967 222° Southwest 260 299 11,700 -871 Descending Denver Center
Sat 11:31:51 AM 39.9675 -104.2561 221° Southwest 255 293 10,800 -871 Descending Denver Center
Sat 11:32:53 AM 39.9158 -104.3133 220° Southwest 230 265 9,900 -1,016 Descending Denver Center
Sat 11:33:55 AM 39.8747 -104.3664 225° Southwest 214 246 8,700 -919 Descending Denver Center
Sat 11:34:57 AM 39.8761 -104.4453 271° West 197 227 8,000 -677 Descending Denver Center

Login

Don't have an account? Register now (free) for customized features, flight alerts, and more!